Главная страница
METAR-TAF:

METAR-TAF

Аэропорты :

Тарава, Кирибати

Бонрики

широта: 01-21N, долгота: 172-55E, высота над уровнем моря: 2 м

Текущие метеонаблюдения

Эта сводка был подготовлена 8 минут назад, в 19:00 UTC
Ветер 7 Узел от восточный
Температура 28°C
Влажность 79%
Давление 1008 hPa
Видимость 10 км и более
Отдельные облака на высоте 2000 фута

METAR: NGTA 231900Z 08007KT 9999 SCT020 28/24 Q1008

Время: 09:08 (19:08 UTC)

Прогноз

Эта сводка был подготовлена 1 час и 58 минут назад, в 17:10 UTC
Прогноз действительный с 23-го 18 UTC до 24-го 18 UTC
Ветер 10 Узел от восточный
Видимость 10 км и более
небольшая облачность на высоте 2000 фута

TAF: NGTA 231710Z 2318/2418 08010KT 9999 FEW020

Метеонаблюдения и прогнозы для более 4000 аэропортов (сводки METAR и TAF).

Имеющиеся станции представлены на карте желтыми и красными точками.

Чтобы увидеть название станции, наведите на нее мышь.

Затем щелкните, чтобы увидеть метеонаблюдения и метеопрогнозы.

Управление картой: чтобы увеличить масштаб, щелкните зеленые кнопки с черным крестиком; чтобы уменьшить масштаб, щелкните зеленую кнопку с тире; для просмотра соседних карт щелкайте зеленые стрелки.


METAR-TAF: